Data for 06/19/2015

Time Sea-Level Adjusted Pressure Absolute Pressure Temperature Relative Humidity Dew Point   
(mb) (inHg) (mb) (inHg) (C) (F) (%) (C) (F)
00:05 1016 30 845 24.95 16 60.8 60 8.4 47.1
00:10 1016 30 845 24.95 16 60.8 61 8.6 47.5
00:15 1016 30 845 24.95 15.8 60.4 62 8.6 47.5
00:20 1016 30 846 24.98 15.5 59.9 64 8.7 47.7
00:25 1016 30 846 24.98 15.3 59.5 64 8.6 47.5
00:30 1016 30 846 24.98 15.2 59.3 64 8.5 47.3
00:35 1016 30 845 24.95 15.3 59.5 66 9.1 48.4
00:40 1016 30 845 24.95 15.2 59.4 63 8.3 47
00:45 1016 30 845 24.95 14.8 58.7 65 8.3 47
00:50 1016 30 845 24.95 14.3 57.7 67 8.4 47
00:55 1016 30 845 24.95 13.9 57 67 7.8 46.1
01:00 1016 30 845 24.95 13.7 56.7 66 7.6 45.8
01:05 1016 30 845 24.95 13.6 56.4 68 7.7 45.9
01:10 1016 30 845 24.95 13.4 56.1 65 7.1 44.8
01:15 1016 30 845 24.95 13.6 56.6 65 7.2 44.9
01:20 1016 30 845 24.95 13.9 57.1 62 6.9 44.4
01:25 1016 30 845 24.95 14.2 57.5 61 6.8 44.3
01:30 1016 30 845 24.95 14.3 57.8 63 7.4 45.4
01:35 1016 30 845 24.95 14 57.3 64 7.4 45.4
01:40 1016 30 845 24.95 13.7 56.7 64 7.1 44.8
01:45 1016 30 845 24.95 13.9 57 63 7 44.6
01:50 1016 30 845 24.95 14 57.1 64 7.4 45.3
01:55 1016 30 845 24.95 14.1 57.4 62 7.1 44.8
02:00 1016 30 845 24.95 14 57.3 63 7.3 45.1
02:05 1016 30 845 24.95 13.9 57 64 7.3 45.1
02:10 1016 30 845 24.95 13.9 57 64 7.3 45.1
02:15 1016 30 845 24.95 13.8 56.9 64 7.1 44.8
02:20 1016 30 845 24.95 13.5 56.4 65 7.1 44.8
02:25 1016 30 846 24.98 13.5 56.3 66 7.3 45.2
02:30 1016 30 846 24.98 13.4 56 68 7.5 45.5
02:35 1016 30 846 24.98 13 55.4 69 7.4 45.3
02:40 1016 30 846 24.98 12.9 55.2 69 7.4 45.3
02:45 1016 30 846 24.98 12.9 55.2 69 7.3 45.1
02:50 1016 30 846 24.98 13.2 55.7 66 7 44.6
02:55 1016 30 846 24.98 13.7 56.6 63 6.8 44.3
03:00 1016 30 846 24.98 14 57.2 62 7 44.6
03:05 1016 30 846 24.98 13.9 56.9 63 6.9 44.4
03:10 1016 30 846 24.98 13.4 56.2 65 7 44.6
03:15 1016 30 846 24.98 13 55.5 66 6.9 44.5
03:20 1016 30 846 24.98 13 55.3 66 6.9 44.4
03:25 1016 30 846 24.98 13 55.4 66 6.8 44.3
03:30 1016 30 846 24.98 12.8 55 67 6.9 44.4
03:35 1016 30 846 24.98 12.7 54.8 67 6.7 44.1
03:40 1016 30 846 24.98 12.9 55.2 66 6.7 44.1
03:45 1016 30 846 24.98 12.6 54.7 68 7 44.6
03:50 1016 30 846 24.98 12.3 54.1 69 6.8 44.3
03:55 1016 30 846 24.98 12.3 54.2 70 7 44.5
04:00 1017 30.03 846 24.98 12.3 54.1 69 6.9 44.4
04:05 1017 30.03 846 24.98 12.4 54.3 70 7.1 44.8
04:10 1017 30.03 846 24.98 12.3 54.1 71 7.2 44.9
04:15 1017 30.03 846 24.98 12.2 54 71 7.1 44.8
04:20 1017 30.03 846 24.98 12.2 54 71 7.1 44.8
04:25 1017 30.03 846 24.98 12.2 54 70 7 44.7
04:30 1017 30.03 846 24.98 12.3 54.1 70 7.1 44.7
04:35 1017 30.03 846 24.98 12.3 54.2 70 7 44.5
04:40 1017 30.03 846 24.98 12.5 54.4 69 7 44.5
04:45 1017 30.03 846 24.98 12.7 54.9 68 7 44.5
04:50 1017 30.03 846 24.98 13 55.4 67 7 44.7
04:55 1017 30.03 846 24.98 12.9 55.2 67 6.9 44.5
05:00 1017 30.03 846 24.98 12.9 55.1 67 6.8 44.3
05:05 1017 30.03 846 24.98 12.9 55.3 67 6.9 44.5
05:10 1017 30.03 846 24.98 13.1 55.5 66 6.9 44.4
05:15 1017 30.03 846 24.98 13.1 55.6 66 6.9 44.5
05:20 1017 30.03 846 24.98 13.3 56 65 6.9 44.4
05:25 1017 30.03 846 24.98 13.5 56.2 65 7.1 44.7
05:30 1017 30.03 846 24.98 13.6 56.4 64 6.8 44.3
05:35 1017 30.03 846 24.98 13.7 56.7 64 7.1 44.8
05:40 1017 30.03 846 24.98 13.6 56.4 65 7.2 45
05:45 1017 30.03 846 24.98 13.4 56.2 66 7.2 44.9
05:50 1017 30.03 846 24.98 13.4 56 66 7.2 45
05:55 1017 30.03 846 24.98 13.5 56.2 64 7 44.5
06:00 1017 30.03 846 24.98 13.9 57 65 7.4 45.3
06:05 1017 30.03 846 24.98 14 57.2 65 7.7 45.8
06:10 1017 30.03 846 24.98 14 57.2 65 7.6 45.6
06:15 1017 30.03 846 24.98 13.9 56.9 66 7.7 45.9
06:20 1017 30.03 846 24.98 13.8 56.9 68 8 46.5
06:25 1017 30.03 846 24.98 13.7 56.7 68 8 46.4
06:30 1017 30.03 846 24.98 13.8 56.9 68 8 46.4
06:35 1016 30 846 24.98 14 57.2 67 8 46.4
06:40 1017 30.03 846 24.98 14.3 57.7 66 8 46.4
06:45 1016 30 846 24.98 14.6 58.3 65 8.2 46.8
06:50 1017 30.03 846 24.98 14.8 58.7 65 8.4 47.2
06:55 1016 30 846 24.98 15 59.1 64 8.4 47
07:00 1017 30.03 846 24.98 15.4 59.7 63 8.6 47.4
07:05 1017 30.03 846 24.98 15.8 60.4 60 8.2 46.8
07:10 1017 30.03 846 24.98 15.9 60.7 67 9.9 49.8
07:15 1017 30.03 846 24.98 16.1 61 62 8.9 48
07:20 1017 30.03 846 24.98 16.3 61.3 59 8.2 46.8
07:25 1017 30.03 846 24.98 16.8 62.3 57 8.3 46.9
07:30 1017 30.03 846 24.98 17.3 63.2 55 8.2 46.8
07:35 1017 30.03 846 24.98 17.6 63.7 55 8.5 47.4
07:40 1017 30.03 846 24.98 17.5 63.5 59 9.4 49
07:45 1017 30.03 846 24.98 16.9 62.5 60 9.2 48.5
07:50 1017 30.03 846 24.98 17 62.6 60 9.2 48.6
07:55 1017 30.03 846 24.98 17.5 63.5 57 9 48.3
08:00 1017 30.03 846 24.98 18.1 64.5 55 8.9 48.1
08:05 1017 30.03 846 24.98 19.1 66.3 49 8.3 47
08:10 1017 30.03 846 24.98 19.9 67.8 48 8.7 47.7
08:15 1017 30.03 846 24.98 20.3 68.6 45 8.1 46.6
08:20 1017 30.03 846 24.98 20.3 68.5 46 8.5 47.3
08:25 1017 30.03 846 24.98 20 67.9 48 8.8 47.9
08:30 1017 30.03 846 24.98 20.1 68.2 45 7.9 46.2
08:35 1017 30.03 846 24.98 20.6 69.1 43 7.7 45.9
08:40 1017 30.03 846 24.98 20.2 68.3 46 8.2 46.8
08:45 1017 30.03 846 24.98 20.2 68.4 45 8.2 46.7
08:50 1017 30.03 846 24.98 20.3 68.6 46 8.5 47.2
08:55 1017 30.03 846 24.98 20.5 68.9 47 8.8 47.8
09:00 1017 30.03 846 24.98 20.3 68.6 47 8.9 48.1
09:05 1016 30 846 24.98 19.8 67.6 49 8.8 47.8
09:10 1016 30 846 24.98 19.3 66.8 50 8.9 48
09:15 1016 30 846 24.98 19.1 66.4 52 9 48.2
09:20 1016 30 846 24.98 19.6 67.3 51 9.2 48.6
09:25 1016 30 846 24.98 20.5 69 47 9 48.3
09:30 1016 30 846 24.98 20.9 69.6 48 9.8 49.6
09:35 1016 30 846 24.98 21 69.8 47 9.4 49
09:40 1016 30 846 24.98 20.8 69.5 47 9.3 48.8
09:45 1016 30 846 24.98 21.2 70.2 47 9.7 49.5
09:50 1016 30 846 24.98 21.5 70.7 46 9.4 49
09:55 1016 30 846 24.98 21.5 70.6 47 9.9 49.8
10:00 1016 30 846 24.98 21.6 70.9 47 10.1 50.1
10:05 1016 30 846 24.98 21.3 70.3 50 10.6 51
10:10 1016 30 845 24.95 21.5 70.7 48 10.3 50.6
10:15 1016 30 845 24.95 20.6 69.1 49 9.8 49.6
10:20 1016 30 845 24.95 20.2 68.3 51 9.8 49.6
10:25 1016 30 845 24.95 20.5 68.9 48 9.3 48.7
10:30 1016 30 846 24.98 21.6 70.8 44 9 48.2
10:35 1016 30 846 24.98 22.3 72.1 41 8.5 47.3
10:40 1016 30 846 24.98 23.1 73.5 38 8 46.5
10:45 1016 30 846 24.98 23.4 74.1 33 6.5 43.8
10:50 1016 30 846 24.98 23.5 74.4 34 7 44.6
10:55 1016 30 845 24.95 23.6 74.4 34 6.9 44.5
11:00 1016 30 845 24.95 23.7 74.6 34 7.1 44.8
11:05 1016 30 845 24.95 24 75.2 32 6.5 43.7
11:10 1016 30 845 24.95 23.8 74.9 31 5.7 42.3
11:15 1016 30 845 24.95 24.2 75.5 32 6.8 44.2
11:20 1016 30 845 24.95 24.1 75.4 32 6.6 44
11:25 1016 30 845 24.95 23.9 75 33 6.7 44.1
11:30 1016 30 845 24.95 23.8 74.9 32 6.4 43.6
11:35 1016 30 845 24.95 24.1 75.5 32 6.8 44.2
11:40 1016 30 845 24.95 24.3 75.8 33 7.1 44.7
11:45 1016 30 845 24.95 24 75.1 32 6.4 43.5
11:50 1016 30 845 24.95 24.2 75.6 31 6.3 43.4
11:55 1016 30 845 24.95 24.6 76.3 31 6.6 43.8
12:00 1016 30 845 24.95 24 75.2 31 6.1 43
12:05 1016 30 845 24.95 24.6 76.3 28 5.4 41.7
12:10 1016 30 845 24.95 24.2 75.5 32 6.6 43.9
12:15 1016 30 845 24.95 25.1 77.1 28 5.4 41.8
12:20 1016 30 845 24.95 25.8 78.4 26 5.1 41.2
12:25 1016 30 845 24.95 25.5 78 26 5 40.9
12:30 1016 30 845 24.95 25.6 78 25 4.2 39.5
12:35 1016 30 845 24.95 25.6 78 27 5.3 41.5
12:40 1016 30 845 24.95 25.3 77.5 26 4.6 40.3
12:45 1016 30 845 24.95 25.5 77.9 25 4.4 39.9
12:50 1015 29.97 845 24.95 26.2 79.1 24 4.3 39.8
12:55 1015 29.97 845 24.95 26.3 79.3 22 3 37.3
13:00 1015 29.97 844 24.92 25.9 78.5 23 3.2 37.7
13:05 1015 29.97 844 24.92 25.1 77.3 23 3.1 37.5
13:10 1015 29.97 844 24.92 25 77 22 2.4 36.3
13:15 1015 29.97 844 24.92 25.5 77.9 22 2.4 36.4
13:20 1015 29.97 844 24.92 25.5 77.9 21 2.1 35.7
13:25 1015 29.97 844 24.92 25.6 78 21 1.9 35.4
13:30 1015 29.97 844 24.92 26 78.8 20 1.9 35.3
13:35 1015 29.97 844 24.92 26.4 79.6 21 2.4 36.3
13:40 1015 29.97 844 24.92 26.1 79 20 1.9 35.4
13:45 1015 29.97 844 24.92 25.6 78.1 19 0.9 33.5
13:50 1015 29.97 844 24.92 26.1 78.9 19 1.1 34
13:55 1015 29.97 844 24.92 26.4 79.4 20 2 35.7
14:00 1015 29.97 844 24.92 26.5 79.7 20 1.9 35.5
14:05 1015 29.97 844 24.92 26.3 79.4 20 1.9 35.4
14:10 1015 29.97 844 24.92 25.5 77.9 21 1.9 35.5
14:15 1015 29.97 844 24.92 25.9 78.6 20 1.4 34.6
14:20 1015 29.97 844 24.92 26.4 79.6 19 1.5 34.7
14:25 1015 29.97 844 24.92 26.7 80 19 1.5 34.7
14:30 1015 29.97 844 24.92 26.8 80.3 19 1.2 34.2
14:35 1015 29.97 844 24.92 26.6 79.9 20 2 35.6
14:40 1015 29.97 844 24.92 26.5 79.7 20 2.3 36.2
14:45 1015 29.97 844 24.92 27.2 81 20 2.6 36.8
14:50 1015 29.97 844 24.92 27.5 81.4 19 1.9 35.4
14:55 1015 29.97 844 24.92 27.3 81.2 20 2.4 36.2
15:00 1015 29.97 844 24.92 27.3 81.1 19 1.9 35.5
15:05 1015 29.97 844 24.92 27.2 80.9 19 1.9 35.4
15:10 1014 29.94 844 24.92 27.1 80.8 20 2.4 36.3
15:15 1014 29.94 844 24.92 26.7 80.1 20 2.2 36
15:20 1014 29.94 844 24.92 26.8 80.2 21 3 37.4
15:25 1014 29.94 844 24.92 27.2 81 19 1.6 34.9
15:30 1014 29.94 843 24.89 27.3 81.1 20 2.6 36.8
15:35 1014 29.94 843 24.89 27 80.5 20 2.7 36.9
15:40 1014 29.94 843 24.89 26.6 79.8 21 2.6 36.6
15:45 1014 29.94 843 24.89 26.7 80.1 21 2.9 37.3
15:50 1014 29.94 843 24.89 26.3 79.3 22 3 37.4
15:55 1014 29.94 843 24.89 26.7 80.1 21 2.9 37.2
16:00 1014 29.94 843 24.89 26.8 80.2 20 2.5 36.4
16:05 1014 29.94 843 24.89 26.9 80.4 21 2.8 37
16:10 1014 29.94 843 24.89 26.9 80.4 21 2.8 37
16:15 1014 29.94 843 24.89 26.7 80.1 21 2.7 36.8
16:20 1014 29.94 843 24.89 26.9 80.3 21 3 37.4
16:25 1014 29.94 843 24.89 26.6 79.8 24 4.4 39.9
16:30 1014 29.94 843 24.89 25.5 78 25 4.3 39.8
16:35 1014 29.94 844 24.92 24.7 76.4 26 4.1 39.4
16:40 1015 29.97 844 24.92 23.8 74.8 28 4.2 39.6
16:45 1015 29.97 844 24.92 23.7 74.7 28 4.2 39.6
16:50 1015 29.97 844 24.92 23.6 74.4 27 3.7 38.7
16:55 1014 29.94 844 24.92 23.9 75 25 2.8 37.1
17:00 1014 29.94 844 24.92 24 75.1 25 2.9 37.1
17:05 1014 29.94 844 24.92 23.9 75.1 25 2.7 36.9
17:10 1014 29.94 844 24.92 24.4 76 25 3.2 37.7
17:15 1014 29.94 844 24.92 24.7 76.5 24 3.3 37.9
17:20 1015 29.97 844 24.92 25 77 23 2.5 36.6
17:25 1015 29.97 844 24.92 25.2 77.3 24 3.2 37.7
17:30 1015 29.97 844 24.92 24.9 76.9 23 2.7 36.9
17:35 1015 29.97 844 24.92 24.9 76.7 23 2.7 36.9
17:40 1015 29.97 844 24.92 24.6 76.3 24 2.7 36.9
17:45 1015 29.97 844 24.92 24.6 76.3 24 3.1 37.6
17:50 1015 29.97 844 24.92 24.8 76.7 23 2.3 36.2
17:55 1015 29.97 844 24.92 24.6 76.3 23 2.4 36.3
18:00 1015 29.97 844 24.92 24.9 76.8 23 2.4 36.4
18:05 1015 29.97 844 24.92 24.8 76.6 25 3.6 38.4
18:10 1015 29.97 844 24.92 24.1 75.3 25 2.9 37.2
18:15 1015 29.97 844 24.92 24 75.1 24 2.1 35.8
18:20 1015 29.97 844 24.92 24 75.1 24 2.1 35.8
18:25 1015 29.97 844 24.92 24.2 75.6 23 2.1 35.8
18:30 1015 29.97 844 24.92 23.8 74.9 24 2.1 35.8
18:35 1015 29.97 844 24.92 23.4 74.2 25 2.4 36.3
18:40 1015 29.97 844 24.92 23.1 73.6 25 2 35.6
18:45 1015 29.97 844 24.92 23.1 73.7 25 2 35.7
18:50 1015 29.97 844 24.92 23.1 73.6 25 2.3 36.2
18:55 1015 29.97 844 24.92 23.2 73.7 24 1.9 35.5
19:00 1015 29.97 845 24.95 23.2 73.7 25 2 35.7
19:05 1015 29.97 845 24.95 23 73.4 28 3.5 38.4
19:10 1015 29.97 845 24.95 22.7 72.8 29 4.1 39.3
19:15 1015 29.97 845 24.95 22.6 72.6 29 4 39.2
19:20 1016 30 845 24.95 22.5 72.6 29 4 39.2
19:25 1016 30 845 24.95 22.5 72.4 30 4.3 39.8
19:30 1016 30 845 24.95 22.2 72 31 4.5 40.1
19:35 1016 30 845 24.95 22.1 71.7 34 5.6 42.2
19:40 1016 30 845 24.95 21.8 71.3 34 5.4 41.7
19:45 1016 30 845 24.95 21.7 71 32 4.5 40.2
19:50 1016 30 845 24.95 21.5 70.8 32 4.3 39.7
19:55 1016 30 845 24.95 21.4 70.5 31 3.8 38.8
20:00 1016 30 845 24.95 21.3 70.4 32 4.2 39.6
20:05 1016 30 845 24.95 21.2 70.2 32 3.9 39.1
20:10 1016 30 845 24.95 21 69.9 31 3.7 38.6
20:15 1016 30 845 24.95 20.9 69.7 32 3.7 38.6
20:20 1016 30 845 24.95 20.8 69.4 33 4.1 39.4
20:25 1016 30 845 24.95 20.6 69 32 3.6 38.6
20:30 1016 30 845 24.95 20.4 68.8 32 3.5 38.3
20:35 1016 30 845 24.95 20.4 68.7 34 4.2 39.5
20:40 1016 30 845 24.95 20.3 68.5 35 4.5 40.1
20:45 1017 30.03 846 24.98 20 68 36 4.6 40.3
20:50 1016 30 846 24.98 19.8 67.6 41 6.2 43.2
20:55 1017 30.03 846 24.98 19.3 66.7 44 7 44.6
21:00 1017 30.03 846 24.98 18.7 65.6 50 8.2 46.7
21:05 1017 30.03 846 24.98 18.3 65 52 8.3 47
21:10 1017 30.03 846 24.98 17.9 64.2 51 7.7 45.8
21:15 1017 30.03 846 24.98 17.4 63.3 49 6.8 44.2
21:20 1017 30.03 846 24.98 17.5 63.5 49 6.8 44.2
21:25 1017 30.03 846 24.98 17.7 63.8 49 6.8 44.3
21:30 1017 30.03 847 25.01 17.6 63.6 55 8.4 47.1
21:35 1018 30.06 847 25.01 17.2 62.9 51 7.1 44.7
21:40 1018 30.06 847 25.01 17.3 63.2 52 7.4 45.3
21:45 1018 30.06 847 25.01 17.5 63.4 57 8.8 47.9
21:50 1018 30.06 847 25.01 17.1 62.7 59 9.2 48.5
21:55 1018 30.06 847 25.01 16.7 62 58 8.6 47.4
22:00 1018 30.06 847 25.01 16.7 62.1 59 8.7 47.7
22:05 1018 30.06 847 25.01 16.8 62.2 47 5.7 42.2
22:10 1018 30.06 847 25.01 17 62.5 45 5 41.1
22:15 1018 30.06 847 25.01 17.1 62.8 45 5 41.1
22:20 1018 30.06 847 25.01 17 62.6 44 4.9 40.8
22:25 1018 30.06 848 25.04 16.9 62.4 43 4.5 40.1
22:30 1018 30.06 848 25.04 16.8 62.3 42 3.8 38.9
22:35 1018 30.06 848 25.04 16.8 62.2 43 4.3 39.8
22:40 1018 30.06 848 25.04 16.7 62 36 1.6 34.8
22:45 1018 30.06 848 25.04 17.1 62.8 33 0.6 33.1
22:50 1018 30.06 848 25.04 17.3 63.1 32 0.5 32.9
22:55 1018 30.06 848 25.04 17.4 63.3 31 0.4 32.7
23:00 1019 30.09 848 25.04 17.4 63.3 31 0.3 32.6
23:05 1019 30.09 848 25.04 17.4 63.2 31 0.2 32.3
23:10 1019 30.09 848 25.04 17.3 63.2 31 0.2 32.4
23:15 1019 30.09 848 25.04 17.2 63 32 0.5 32.9
23:20 1019 30.09 848 25.04 17.1 62.7 32 0.3 32.6
23:25 1019 30.09 848 25.04 16.9 62.5 33 0.6 33.1
23:30 1019 30.09 848 25.04 16.7 62.1 34 0.8 33.4
23:35 1019 30.09 848 25.04 16.5 61.6 35 0.9 33.6
23:40 1019 30.09 848 25.04 16.2 61.2 34 0.4 32.7
23:45 1019 30.09 848 25.04 16.3 61.3 34 0.4 32.7
23:50 1019 30.09 848 25.04 16.3 61.3 34 0.3 32.5
23:55 1019 30.09 848 25.04 16.2 61.1 35 1 33.8
24:00 1019 30.09 848 25.04 15.9 60.6 36 1.1 33.9